INFORMACIÓN METAR y TAF
METAR FOR EGPB
ADDS - METARS form results

(1334 UTC 28 February 2021)
Data provider http://aviationweather.gov/metar/data/
 
METAR text: EGPB 281320Z 25018KT 9999 FEW014 SCT027 08/04 Q1034
Conditions at: EGPB (SUMBURGH (CAPE) , GB) observed 1320 UTC 28 February 2021
Temperature: 8.0°C (46°F)
Dewpoint: 4.0°C (39°F) [RH = 76%]
Pressure (altimeter): 30.53 inches Hg (1034.0 mb)
Winds: from the WSW (250 degrees) at 21 MPH (18 knots; 9.3 m/s)
Visibility: 6 or more miles (10+ km)
Ceiling: at least 12,000 feet AGL
Clouds: few clouds at 1400 feet AGL
scattered clouds at 2700 feet AGL
Weather: no significant weather observed at this time

METAR text: EGPB 281250Z 26018KT 9999 FEW014 SCT027 08/05 Q1034
Conditions at: EGPB (SUMBURGH (CAPE) , GB) observed 1250 UTC 28 February 2021
Temperature: 8.0°C (46°F)
Dewpoint: 5.0°C (41°F) [RH = 81%]
Pressure (altimeter): 30.53 inches Hg (1034.0 mb)
Winds: from the W (260 degrees) at 21 MPH (18 knots; 9.3 m/s)
Visibility: 6 or more miles (10+ km)
Ceiling: at least 12,000 feet AGL
Clouds: few clouds at 1400 feet AGL
scattered clouds at 2700 feet AGL
Weather: no significant weather observed at this time

Forecast for: EGPB (SUMBURGH (CAPE) , GB)
Text: TAF EGPB 281057Z 2812/2821 23016KT 9999 SCT025
Forecast period: 1200 to 2100 UTC 28 February 2021
Forecast type: FROM: standard forecast or significant change
Winds: from the SW (230 degrees) at 18 MPH (16 knots; 8.2 m/s)
Visibility: 6 or more miles (10+ km)
Ceiling: at least 12,000 feet AGL
Clouds: scattered clouds at 2500 feet AGL
Weather: no significant weather forecast for this period
Text: PROB30
Forecast period: 1200 to 2100 UTC 28 February 2021
Forecast type: TEMPORARY: The following changes expected for less than half the time period
Visibility: 4 miles (7 km)
Ceiling: 1200 feet AGL
Clouds: broken clouds at 1200 feet AGL
Weather: no significant weather forecast for this period

 MAPA DE AEROPUERTO

 INFORMACIÓN DE PISTA